Terminal Aerodrome Forecast
Issued by NWS Blacksburg, VA

Home | Current Version | Previous Version | Text Only | Print | Product List | Glossary On
Versions: 1 2 3 4 5 6 7 8 9 10 11 12 13 14 15 16 17 18 19 20 21 22 23 24 25 26 27 28 29 30 31 32 33 34 35 36 37
000
FTUS41 KRNK 290526
TAFDAN
TAF
KDAN 290526Z 2906/3006 32006KT P6SM FEW090
     FM291100 02005KT 6SM BR SCT050
     FM291200 03005KT P6SM BKN050
     FM291400 04005KT P6SM BKN025
     FM291500 05005KT P6SM BKN050
     FM291700 06005KT P6SM SCT050
     FM300200 08004KT P6SM BKN090=

USA.gov is the U.S. government's official web portal to all federal, state and local government web resources and services.